sensor_id;sensor_type;location;lat;lon;timestamp;P1;durP1;ratioP1;P2;durP2;ratioP2
23730;SDS011;12046;44.702;10.622;2024-03-25T00:01:18;3.25;;;2.38;;
23730;SDS011;12046;44.702;10.622;2024-03-25T00:03:43;2.83;;;2.10;;
23730;SDS011;12046;44.702;10.622;2024-03-25T00:06:09;4.80;;;2.35;;
23730;SDS011;12046;44.702;10.622;2024-03-25T00:08:35;2.63;;;2.00;;
23730;SDS011;12046;44.702;10.622;2024-03-25T00:11:00;3.60;;;1.83;;
23730;SDS011;12046;44.702;10.622;2024-03-25T00:13:26;3.40;;;2.20;;
23730;SDS011;12046;44.702;10.622;2024-03-25T00:15:52;3.03;;;2.42;;
23730;SDS011;12046;44.702;10.622;2024-03-25T00:18:18;3.03;;;2.22;;
23730;SDS011;12046;44.702;10.622;2024-03-25T00:20:44;2.95;;;2.03;;
23730;SDS011;12046;44.702;10.622;2024-03-25T00:23:09;2.58;;;2.05;;
23730;SDS011;12046;44.702;10.622;2024-03-25T00:25:35;2.72;;;2.05;;
23730;SDS011;12046;44.702;10.622;2024-03-25T00:28:01;2.63;;;2.10;;
23730;SDS011;12046;44.702;10.622;2024-03-25T00:30:26;2.85;;;1.90;;
23730;SDS011;12046;44.702;10.622;2024-03-25T00:32:52;2.35;;;1.67;;
23730;SDS011;12046;44.702;10.622;2024-03-25T00:35:18;4.10;;;2.00;;
23730;SDS011;12046;44.702;10.622;2024-03-25T00:37:43;2.20;;;1.92;;
23730;SDS011;12046;44.702;10.622;2024-03-25T00:40:10;2.30;;;1.90;;
23730;SDS011;12046;44.702;10.622;2024-03-25T00:42:37;3.90;;;1.70;;
23730;SDS011;12046;44.702;10.622;2024-03-25T00:45:03;2.00;;;1.35;;
23730;SDS011;12046;44.702;10.622;2024-03-25T00:47:31;2.33;;;1.52;;
23730;SDS011;12046;44.702;10.622;2024-03-25T00:49:57;1.98;;;1.75;;
23730;SDS011;12046;44.702;10.622;2024-03-25T00:52:23;5.32;;;1.70;;
23730;SDS011;12046;44.702;10.622;2024-03-25T00:54:49;3.85;;;1.90;;
23730;SDS011;12046;44.702;10.622;2024-03-25T00:57:14;1.77;;;1.52;;
23730;SDS011;12046;44.702;10.622;2024-03-25T00:59:40;3.03;;;1.70;;
23730;SDS011;12046;44.702;10.622;2024-03-25T01:02:06;2.70;;;1.42;;
23730;SDS011;12046;44.702;10.622;2024-03-25T01:04:32;2.15;;;1.58;;
23730;SDS011;12046;44.702;10.622;2024-03-25T01:06:58;2.33;;;1.63;;
23730;SDS011;12046;44.702;10.622;2024-03-25T01:09:23;2.28;;;1.77;;
23730;SDS011;12046;44.702;10.622;2024-03-25T01:11:51;2.30;;;1.48;;
23730;SDS011;12046;44.702;10.622;2024-03-25T01:14:17;2.00;;;1.40;;
23730;SDS011;12046;44.702;10.622;2024-03-25T01:16:44;1.55;;;1.10;;
23730;SDS011;12046;44.702;10.622;2024-03-25T01:19:10;1.95;;;1.48;;
23730;SDS011;12046;44.702;10.622;2024-03-25T01:21:36;3.58;;;1.45;;
23730;SDS011;12046;44.702;10.622;2024-03-25T01:24:02;1.90;;;1.38;;
23730;SDS011;12046;44.702;10.622;2024-03-25T01:26:27;1.77;;;1.58;;
23730;SDS011;12046;44.702;10.622;2024-03-25T01:28:54;2.55;;;1.48;;
23730;SDS011;12046;44.702;10.622;2024-03-25T01:31:20;2.92;;;1.50;;
23730;SDS011;12046;44.702;10.622;2024-03-25T01:33:46;2.15;;;1.30;;
23730;SDS011;12046;44.702;10.622;2024-03-25T01:36:11;1.42;;;1.30;;
23730;SDS011;12046;44.702;10.622;2024-03-25T01:38:43;2.22;;;1.30;;
23730;SDS011;12046;44.702;10.622;2024-03-25T01:41:09;2.05;;;1.20;;
23730;SDS011;12046;44.702;10.622;2024-03-25T01:43:35;3.00;;;1.60;;
23730;SDS011;12046;44.702;10.622;2024-03-25T01:46:01;1.30;;;1.20;;
23730;SDS011;12046;44.702;10.622;2024-03-25T01:48:27;1.85;;;1.40;;
23730;SDS011;12046;44.702;10.622;2024-03-25T01:50:53;2.45;;;1.23;;
23730;SDS011;12046;44.702;10.622;2024-03-25T01:53:19;1.45;;;1.20;;
23730;SDS011;12046;44.702;10.622;2024-03-25T01:55:45;2.15;;;1.38;;
23730;SDS011;12046;44.702;10.622;2024-03-25T01:58:11;1.67;;;1.00;;
23730;SDS011;12046;44.702;10.622;2024-03-25T02:00:37;2.50;;;1.20;;
23730;SDS011;12046;44.702;10.622;2024-03-25T02:03:03;2.17;;;1.13;;
23730;SDS011;12046;44.702;10.622;2024-03-25T02:05:30;1.17;;;1.08;;
23730;SDS011;12046;44.702;10.622;2024-03-25T02:07:56;1.23;;;1.00;;
23730;SDS011;12046;44.702;10.622;2024-03-25T02:10:22;1.85;;;1.17;;
23730;SDS011;12046;44.702;10.622;2024-03-25T02:12:48;1.38;;;1.05;;
23730;SDS011;12046;44.702;10.622;2024-03-25T02:15:15;0.80;;;0.80;;
23730;SDS011;12046;44.702;10.622;2024-03-25T02:17:41;1.75;;;1.40;;
23730;SDS011;12046;44.702;10.622;2024-03-25T02:20:07;2.03;;;1.50;;
23730;SDS011;12046;44.702;10.622;2024-03-25T02:22:34;1.58;;;1.10;;
23730;SDS011;12046;44.702;10.622;2024-03-25T02:25:01;1.52;;;0.90;;
23730;SDS011;12046;44.702;10.622;2024-03-25T02:27:27;2.13;;;1.13;;
23730;SDS011;12046;44.702;10.622;2024-03-25T02:29:54;1.80;;;1.10;;
23730;SDS011;12046;44.702;10.622;2024-03-25T02:32:20;1.40;;;1.23;;
23730;SDS011;12046;44.702;10.622;2024-03-25T02:34:47;1.50;;;1.13;;
23730;SDS011;12046;44.702;10.622;2024-03-25T02:37:13;2.65;;;1.10;;
23730;SDS011;12046;44.702;10.622;2024-03-25T02:39:39;3.10;;;1.30;;
23730;SDS011;12046;44.702;10.622;2024-03-25T02:42:05;2.40;;;1.30;;
23730;SDS011;12046;44.702;10.622;2024-03-25T02:44:31;2.20;;;1.42;;
23730;SDS011;12046;44.702;10.622;2024-03-25T02:46:58;1.70;;;1.05;;
23730;SDS011;12046;44.702;10.622;2024-03-25T02:49:24;2.55;;;1.50;;
23730;SDS011;12046;44.702;10.622;2024-03-25T02:51:49;2.33;;;1.13;;
23730;SDS011;12046;44.702;10.622;2024-03-25T02:54:16;1.27;;;1.05;;
23730;SDS011;12046;44.702;10.622;2024-03-25T02:56:42;1.63;;;1.10;;
23730;SDS011;12046;44.702;10.622;2024-03-25T02:59:08;3.92;;;1.23;;
23730;SDS011;12046;44.702;10.622;2024-03-25T03:01:34;2.80;;;1.38;;
23730;SDS011;12046;44.702;10.622;2024-03-25T03:04:00;1.48;;;1.00;;
23730;SDS011;12046;44.702;10.622;2024-03-25T03:06:26;1.85;;;1.20;;
23730;SDS011;12046;44.702;10.622;2024-03-25T03:08:52;1.38;;;1.10;;
23730;SDS011;12046;44.702;10.622;2024-03-25T03:11:18;1.50;;;1.30;;
23730;SDS011;12046;44.702;10.622;2024-03-25T03:13:43;1.10;;;0.90;;
23730;SDS011;12046;44.702;10.622;2024-03-25T03:16:09;1.60;;;1.17;;
23730;SDS011;12046;44.702;10.622;2024-03-25T03:18:35;1.85;;;1.48;;
23730;SDS011;12046;44.702;10.622;2024-03-25T03:21:01;1.65;;;1.17;;
23730;SDS011;12046;44.702;10.622;2024-03-25T03:23:26;1.40;;;1.30;;
23730;SDS011;12046;44.702;10.622;2024-03-25T03:25:52;1.33;;;1.23;;
23730;SDS011;12046;44.702;10.622;2024-03-25T03:28:18;1.60;;;1.30;;
23730;SDS011;12046;44.702;10.622;2024-03-25T03:30:44;2.55;;;1.30;;
23730;SDS011;12046;44.702;10.622;2024-03-25T03:33:10;2.10;;;1.60;;
23730;SDS011;12046;44.702;10.622;2024-03-25T03:35:35;2.35;;;1.52;;
23730;SDS011;12046;44.702;10.622;2024-03-25T03:38:02;2.05;;;1.30;;
23730;SDS011;12046;44.702;10.622;2024-03-25T03:40:29;1.25;;;1.08;;
23730;SDS011;12046;44.702;10.622;2024-03-25T03:42:55;1.83;;;1.30;;
23730;SDS011;12046;44.702;10.622;2024-03-25T03:45:21;1.90;;;1.30;;
23730;SDS011;12046;44.702;10.622;2024-03-25T03:47:47;2.60;;;1.55;;
23730;SDS011;12046;44.702;10.622;2024-03-25T03:50:12;1.38;;;1.27;;
23730;SDS011;12046;44.702;10.622;2024-03-25T03:52:38;2.10;;;1.60;;
23730;SDS011;12046;44.702;10.622;2024-03-25T03:55:04;3.53;;;1.52;;
23730;SDS011;12046;44.702;10.622;2024-03-25T03:57:30;2.58;;;1.40;;
23730;SDS011;12046;44.702;10.622;2024-03-25T03:59:56;2.30;;;1.55;;
23730;SDS011;12046;44.702;10.622;2024-03-25T04:02:22;2.67;;;1.90;;
23730;SDS011;12046;44.702;10.622;2024-03-25T04:04:49;2.17;;;1.60;;
23730;SDS011;12046;44.702;10.622;2024-03-25T04:07:16;2.13;;;1.65;;
23730;SDS011;12046;44.702;10.622;2024-03-25T04:09:41;2.53;;;1.60;;
23730;SDS011;12046;44.702;10.622;2024-03-25T04:12:07;2.35;;;1.60;;
23730;SDS011;12046;44.702;10.622;2024-03-25T04:14:33;1.98;;;1.77;;
23730;SDS011;12046;44.702;10.622;2024-03-25T04:16:59;2.75;;;1.90;;
23730;SDS011;12046;44.702;10.622;2024-03-25T04:19:25;3.25;;;1.98;;
23730;SDS011;12046;44.702;10.622;2024-03-25T04:21:51;2.38;;;1.48;;
23730;SDS011;12046;44.702;10.622;2024-03-25T04:24:17;1.77;;;1.27;;
23730;SDS011;12046;44.702;10.622;2024-03-25T04:26:44;2.30;;;1.52;;
23730;SDS011;12046;44.702;10.622;2024-03-25T04:29:09;3.83;;;1.50;;
23730;SDS011;12046;44.702;10.622;2024-03-25T04:31:35;2.13;;;1.45;;
23730;SDS011;12046;44.702;10.622;2024-03-25T04:34:03;2.10;;;1.55;;
23730;SDS011;12046;44.702;10.622;2024-03-25T04:36:30;1.75;;;1.50;;
23730;SDS011;12046;44.702;10.622;2024-03-25T04:38:56;2.50;;;1.70;;
23730;SDS011;12046;44.702;10.622;2024-03-25T04:41:21;2.28;;;1.40;;
23730;SDS011;12046;44.702;10.622;2024-03-25T04:43:47;3.10;;;1.50;;
23730;SDS011;12046;44.702;10.622;2024-03-25T04:46:13;2.30;;;1.48;;
23730;SDS011;12046;44.702;10.622;2024-03-25T04:48:38;2.63;;;1.83;;
23730;SDS011;12046;44.702;10.622;2024-03-25T04:51:04;3.45;;;1.42;;
23730;SDS011;12046;44.702;10.622;2024-03-25T04:53:41;2.00;;;1.42;;
23730;SDS011;12046;44.702;10.622;2024-03-25T04:56:07;3.13;;;1.48;;
23730;SDS011;12046;44.702;10.622;2024-03-25T04:58:32;2.33;;;1.60;;
23730;SDS011;12046;44.702;10.622;2024-03-25T05:00:58;3.08;;;1.58;;
23730;SDS011;12046;44.702;10.622;2024-03-25T05:03:24;1.83;;;1.40;;
23730;SDS011;12046;44.702;10.622;2024-03-25T05:05:50;1.80;;;1.50;;
23730;SDS011;12046;44.702;10.622;2024-03-25T05:08:15;1.50;;;1.40;;
23730;SDS011;12046;44.702;10.622;2024-03-25T05:10:41;1.42;;;1.15;;
23730;SDS011;12046;44.702;10.622;2024-03-25T05:13:07;2.67;;;1.50;;
23730;SDS011;12046;44.702;10.622;2024-03-25T05:15:32;1.20;;;1.10;;
23730;SDS011;12046;44.702;10.622;2024-03-25T05:17:58;2.30;;;1.30;;
23730;SDS011;12046;44.702;10.622;2024-03-25T05:20:24;2.03;;;1.10;;
23730;SDS011;12046;44.702;10.622;2024-03-25T05:22:50;1.40;;;1.08;;
23730;SDS011;12046;44.702;10.622;2024-03-25T05:25:15;1.55;;;0.98;;
23730;SDS011;12046;44.702;10.622;2024-03-25T05:27:41;2.08;;;1.05;;
23730;SDS011;12046;44.702;10.622;2024-03-25T05:30:07;1.63;;;1.13;;
23730;SDS011;12046;44.702;10.622;2024-03-25T05:32:33;3.90;;;1.15;;
23730;SDS011;12046;44.702;10.622;2024-03-25T05:34:59;2.85;;;0.90;;
23730;SDS011;12046;44.702;10.622;2024-03-25T05:37:25;1.60;;;1.05;;
23730;SDS011;12046;44.702;10.622;2024-03-25T05:39:50;1.08;;;0.88;;
23730;SDS011;12046;44.702;10.622;2024-03-25T05:42:16;1.27;;;1.00;;
23730;SDS011;12046;44.702;10.622;2024-03-25T05:44:42;3.97;;;1.25;;
23730;SDS011;12046;44.702;10.622;2024-03-25T05:47:10;2.42;;;0.80;;
23730;SDS011;12046;44.702;10.622;2024-03-25T05:49:36;1.80;;;0.90;;
23730;SDS011;12046;44.702;10.622;2024-03-25T05:52:01;1.10;;;0.93;;
23730;SDS011;12046;44.702;10.622;2024-03-25T05:54:28;1.10;;;0.77;;
23730;SDS011;12046;44.702;10.622;2024-03-25T05:56:53;1.88;;;1.02;;
23730;SDS011;12046;44.702;10.622;2024-03-25T05:59:19;2.00;;;1.05;;
23730;SDS011;12046;44.702;10.622;2024-03-25T06:01:45;2.53;;;0.80;;
23730;SDS011;12046;44.702;10.622;2024-03-25T06:04:11;1.25;;;1.00;;
23730;SDS011;12046;44.702;10.622;2024-03-25T06:06:37;2.63;;;1.13;;
23730;SDS011;12046;44.702;10.622;2024-03-25T06:09:03;1.98;;;0.82;;
23730;SDS011;12046;44.702;10.622;2024-03-25T06:11:30;2.28;;;0.77;;
23730;SDS011;12046;44.702;10.622;2024-03-25T06:13:56;1.95;;;0.90;;
23730;SDS011;12046;44.702;10.622;2024-03-25T06:16:21;1.77;;;0.75;;
23730;SDS011;12046;44.702;10.622;2024-03-25T06:18:47;1.17;;;0.82;;
23730;SDS011;12046;44.702;10.622;2024-03-25T06:21:13;2.17;;;1.25;;
23730;SDS011;12046;44.702;10.622;2024-03-25T06:23:38;2.03;;;0.98;;
23730;SDS011;12046;44.702;10.622;2024-03-25T06:26:05;1.02;;;0.80;;
23730;SDS011;12046;44.702;10.622;2024-03-25T06:28:31;2.97;;;0.90;;
23730;SDS011;12046;44.702;10.622;2024-03-25T06:30:57;1.08;;;0.90;;
23730;SDS011;12046;44.702;10.622;2024-03-25T06:33:41;2.28;;;1.17;;
23730;SDS011;12046;44.702;10.622;2024-03-25T06:36:25;1.27;;;1.02;;
23730;SDS011;12046;44.702;10.622;2024-03-25T06:38:51;2.25;;;1.00;;
23730;SDS011;12046;44.702;10.622;2024-03-25T06:41:17;3.70;;;1.30;;
23730;SDS011;12046;44.702;10.622;2024-03-25T06:43:44;1.23;;;0.90;;
23730;SDS011;12046;44.702;10.622;2024-03-25T06:46:10;0.82;;;0.65;;
23730;SDS011;12046;44.702;10.622;2024-03-25T06:48:36;1.25;;;0.80;;
23730;SDS011;12046;44.702;10.622;2024-03-25T06:51:02;1.63;;;0.80;;
23730;SDS011;12046;44.702;10.622;2024-03-25T06:53:31;1.13;;;0.57;;
23730;SDS011;12046;44.702;10.622;2024-03-25T06:55:58;0.50;;;0.50;;
23730;SDS011;12046;44.702;10.622;2024-03-25T06:58:25;1.23;;;0.55;;
23730;SDS011;12046;44.702;10.622;2024-03-25T07:00:52;0.52;;;0.52;;
23730;SDS011;12046;44.702;10.622;2024-03-25T07:03:18;0.52;;;0.45;;
23730;SDS011;12046;44.702;10.622;2024-03-25T07:05:47;0.63;;;0.57;;
23730;SDS011;12046;44.702;10.622;2024-03-25T07:08:14;1.35;;;0.70;;
23730;SDS011;12046;44.702;10.622;2024-03-25T07:10:43;0.75;;;0.70;;
23730;SDS011;12046;44.702;10.622;2024-03-25T07:13:09;0.95;;;0.50;;
23730;SDS011;12046;44.702;10.622;2024-03-25T07:15:35;0.73;;;0.73;;
23730;SDS011;12046;44.702;10.622;2024-03-25T07:18:00;0.75;;;0.40;;
23730;SDS011;12046;44.702;10.622;2024-03-25T07:20:26;1.25;;;0.60;;
23730;SDS011;12046;44.702;10.622;2024-03-25T07:22:52;1.92;;;0.70;;
23730;SDS011;12046;44.702;10.622;2024-03-25T07:25:24;1.65;;;0.70;;
23730;SDS011;12046;44.702;10.622;2024-03-25T07:27:50;2.63;;;0.77;;
23730;SDS011;12046;44.702;10.622;2024-03-25T07:30:17;0.70;;;0.65;;
23730;SDS011;12046;44.702;10.622;2024-03-25T07:32:42;1.52;;;0.50;;
23730;SDS011;12046;44.702;10.622;2024-03-25T07:35:11;0.50;;;0.50;;
23730;SDS011;12046;44.702;10.622;2024-03-25T07:37:37;0.65;;;0.40;;
23730;SDS011;12046;44.702;10.622;2024-03-25T07:40:03;0.70;;;0.60;;
23730;SDS011;12046;44.702;10.622;2024-03-25T07:42:29;1.00;;;0.57;;
23730;SDS011;12046;44.702;10.622;2024-03-25T07:44:56;1.88;;;0.55;;
23730;SDS011;12046;44.702;10.622;2024-03-25T07:47:21;0.40;;;0.40;;
23730;SDS011;12046;44.702;10.622;2024-03-25T07:49:47;0.70;;;0.43;;
23730;SDS011;12046;44.702;10.622;2024-03-25T07:52:13;2.50;;;0.43;;
23730;SDS011;12046;44.702;10.622;2024-03-25T07:54:40;1.23;;;0.50;;
23730;SDS011;12046;44.702;10.622;2024-03-25T07:57:09;0.75;;;0.60;;
23730;SDS011;12046;44.702;10.622;2024-03-25T07:59:35;1.40;;;0.50;;
23730;SDS011;12046;44.702;10.622;2024-03-25T08:02:01;0.60;;;0.60;;
23730;SDS011;12046;44.702;10.622;2024-03-25T08:04:26;1.17;;;0.57;;
23730;SDS011;12046;44.702;10.622;2024-03-25T08:06:52;1.05;;;0.60;;
23730;SDS011;12046;44.702;10.622;2024-03-25T08:09:20;1.60;;;0.50;;
23730;SDS011;12046;44.702;10.622;2024-03-25T08:11:45;1.20;;;0.85;;
23730;SDS011;12046;44.702;10.622;2024-03-25T08:14:11;2.67;;;0.90;;
23730;SDS011;12046;44.702;10.622;2024-03-25T08:16:37;1.45;;;0.80;;
23730;SDS011;12046;44.702;10.622;2024-03-25T08:19:03;1.30;;;1.20;;
23730;SDS011;12046;44.702;10.622;2024-03-25T08:21:28;3.25;;;1.63;;
23730;SDS011;12046;44.702;10.622;2024-03-25T08:23:54;2.78;;;2.25;;
23730;SDS011;12046;44.702;10.622;2024-03-25T08:26:20;3.08;;;2.75;;
23730;SDS011;12046;44.702;10.622;2024-03-25T08:28:46;4.07;;;3.35;;
23730;SDS011;12046;44.702;10.622;2024-03-25T08:31:15;2.65;;;2.45;;
23730;SDS011;12046;44.702;10.622;2024-03-25T08:33:40;2.70;;;2.20;;
23730;SDS011;12046;44.702;10.622;2024-03-25T08:36:06;2.72;;;2.30;;
23730;SDS011;12046;44.702;10.622;2024-03-25T08:38:33;2.95;;;2.38;;
23730;SDS011;12046;44.702;10.622;2024-03-25T08:40:59;3.03;;;2.45;;
23730;SDS011;12046;44.702;10.622;2024-03-25T08:43:25;2.50;;;2.00;;
23730;SDS011;12046;44.702;10.622;2024-03-25T08:45:51;3.55;;;1.73;;
23730;SDS011;12046;44.702;10.622;2024-03-25T08:48:17;2.20;;;1.40;;
23730;SDS011;12046;44.702;10.622;2024-03-25T08:50:42;1.60;;;1.17;;
23730;SDS011;12046;44.702;10.622;2024-03-25T08:53:08;1.98;;;1.20;;
23730;SDS011;12046;44.702;10.622;2024-03-25T08:55:34;4.53;;;1.17;;
23730;SDS011;12046;44.702;10.622;2024-03-25T08:58:00;2.17;;;0.85;;
23730;SDS011;12046;44.702;10.622;2024-03-25T09:00:28;3.47;;;0.95;;
23730;SDS011;12046;44.702;10.622;2024-03-25T09:02:54;4.25;;;1.55;;
23730;SDS011;12046;44.702;10.622;2024-03-25T09:05:20;1.23;;;1.10;;
23730;SDS011;12046;44.702;10.622;2024-03-25T09:07:48;2.63;;;1.10;;
23730;SDS011;12046;44.702;10.622;2024-03-25T09:10:16;1.40;;;0.90;;
23730;SDS011;12046;44.702;10.622;2024-03-25T09:13:01;2.95;;;1.05;;
23730;SDS011;12046;44.702;10.622;2024-03-25T09:15:27;1.25;;;0.80;;
23730;SDS011;12046;44.702;10.622;2024-03-25T09:17:52;1.88;;;1.00;;
23730;SDS011;12046;44.702;10.622;2024-03-25T09:20:18;1.30;;;1.20;;
23730;SDS011;12046;44.702;10.622;2024-03-25T09:22:46;1.10;;;1.00;;
23730;SDS011;12046;44.702;10.622;2024-03-25T09:25:14;2.17;;;1.20;;
23730;SDS011;12046;44.702;10.622;2024-03-25T09:27:40;2.22;;;0.98;;
23730;SDS011;12046;44.702;10.622;2024-03-25T09:30:06;1.88;;;0.80;;
23730;SDS011;12046;44.702;10.622;2024-03-25T09:32:34;1.00;;;0.90;;
23730;SDS011;12046;44.702;10.622;2024-03-25T09:35:00;0.90;;;0.77;;
23730;SDS011;12046;44.702;10.622;2024-03-25T09:37:26;1.00;;;0.90;;
23730;SDS011;12046;44.702;10.622;2024-03-25T09:39:52;1.75;;;1.00;;
23730;SDS011;12046;44.702;10.622;2024-03-25T09:42:20;1.45;;;0.88;;
23730;SDS011;12046;44.702;10.622;2024-03-25T09:44:51;1.48;;;1.10;;
23730;SDS011;12046;44.702;10.622;2024-03-25T09:47:16;1.05;;;1.00;;
23730;SDS011;12046;44.702;10.622;2024-03-25T09:49:42;1.58;;;0.98;;
23730;SDS011;12046;44.702;10.622;2024-03-25T09:52:09;1.48;;;1.33;;
23730;SDS011;12046;44.702;10.622;2024-03-25T09:54:34;2.10;;;1.38;;
23730;SDS011;12046;44.702;10.622;2024-03-25T09:57:03;2.80;;;1.42;;
23730;SDS011;12046;44.702;10.622;2024-03-25T09:59:29;2.95;;;1.60;;
23730;SDS011;12046;44.702;10.622;2024-03-25T10:01:55;2.00;;;1.17;;
23730;SDS011;12046;44.702;10.622;2024-03-25T10:04:21;2.08;;;1.48;;
23730;SDS011;12046;44.702;10.622;2024-03-25T10:06:47;2.63;;;1.60;;
23730;SDS011;12046;44.702;10.622;2024-03-25T10:09:39;2.15;;;1.45;;
23730;SDS011;12046;44.702;10.622;2024-03-25T10:12:12;2.65;;;1.50;;
23730;SDS011;12046;44.702;10.622;2024-03-25T10:14:39;1.50;;;1.40;;
23730;SDS011;12046;44.702;10.622;2024-03-25T10:17:05;1.80;;;1.35;;
23730;SDS011;12046;44.702;10.622;2024-03-25T10:19:31;2.13;;;1.58;;
23730;SDS011;12046;44.702;10.622;2024-03-25T10:22:04;3.00;;;1.75;;
23730;SDS011;12046;44.702;10.622;2024-03-25T10:24:37;2.10;;;1.90;;
23730;SDS011;12046;44.702;10.622;2024-03-25T10:27:03;2.88;;;1.90;;
23730;SDS011;12046;44.702;10.622;2024-03-25T10:29:29;3.85;;;2.00;;
23730;SDS011;12046;44.702;10.622;2024-03-25T10:31:59;3.85;;;2.00;;
23730;SDS011;12046;44.702;10.622;2024-03-25T10:34:24;2.28;;;1.63;;
23730;SDS011;12046;44.702;10.622;2024-03-25T10:36:50;4.45;;;1.90;;
23730;SDS011;12046;44.702;10.622;2024-03-25T10:39:17;4.70;;;2.00;;
23730;SDS011;12046;44.702;10.622;2024-03-25T10:41:44;3.35;;;2.00;;
23730;SDS011;12046;44.702;10.622;2024-03-25T10:44:10;3.70;;;1.90;;
23730;SDS011;12046;44.702;10.622;2024-03-25T10:46:36;3.00;;;1.88;;
23730;SDS011;12046;44.702;10.622;2024-03-25T10:49:14;3.03;;;2.20;;
23730;SDS011;12046;44.702;10.622;2024-03-25T10:51:42;3.65;;;2.40;;
23730;SDS011;12046;44.702;10.622;2024-03-25T10:54:08;3.45;;;2.08;;
23730;SDS011;12046;44.702;10.622;2024-03-25T10:56:34;2.38;;;1.83;;
23730;SDS011;12046;44.702;10.622;2024-03-25T10:59:01;3.80;;;2.10;;
23730;SDS011;12046;44.702;10.622;2024-03-25T11:01:28;2.75;;;1.63;;
23730;SDS011;12046;44.702;10.622;2024-03-25T11:03:54;3.13;;;1.60;;
23730;SDS011;12046;44.702;10.622;2024-03-25T11:06:20;2.55;;;1.48;;
23730;SDS011;12046;44.702;10.622;2024-03-25T11:08:55;4.25;;;1.65;;
23730;SDS011;12046;44.702;10.622;2024-03-25T11:11:21;1.50;;;1.40;;
23730;SDS011;12046;44.702;10.622;2024-03-25T11:13:46;2.50;;;1.65;;
23730;SDS011;12046;44.702;10.622;2024-03-25T11:16:12;2.20;;;1.75;;
23730;SDS011;12046;44.702;10.622;2024-03-25T11:18:39;2.35;;;1.50;;
23730;SDS011;12046;44.702;10.622;2024-03-25T11:21:07;2.65;;;1.50;;
23730;SDS011;12046;44.702;10.622;2024-03-25T11:23:41;2.50;;;1.70;;
23730;SDS011;12046;44.702;10.622;2024-03-25T11:26:18;2.20;;;1.50;;
23730;SDS011;12046;44.702;10.622;2024-03-25T11:28:43;2.47;;;1.50;;
23730;SDS011;12046;44.702;10.622;2024-03-25T11:31:09;2.05;;;1.35;;
23730;SDS011;12046;44.702;10.622;2024-03-25T11:33:37;2.03;;;1.40;;
23730;SDS011;12046;44.702;10.622;2024-03-25T11:36:03;1.95;;;1.40;;
23730;SDS011;12046;44.702;10.622;2024-03-25T11:38:29;4.63;;;1.50;;
23730;SDS011;12046;44.702;10.622;2024-03-25T11:40:55;1.60;;;1.50;;
23730;SDS011;12046;44.702;10.622;2024-03-25T11:43:22;1.50;;;0.98;;
23730;SDS011;12046;44.702;10.622;2024-03-25T11:45:47;1.00;;;0.95;;
23730;SDS011;12046;44.702;10.622;2024-03-25T11:48:14;1.65;;;1.38;;
23730;SDS011;12046;44.702;10.622;2024-03-25T11:50:40;1.80;;;1.45;;
23730;SDS011;12046;44.702;10.622;2024-03-25T11:53:10;2.85;;;1.30;;
23730;SDS011;12046;44.702;10.622;2024-03-25T11:55:36;2.20;;;1.58;;
23730;SDS011;12046;44.702;10.622;2024-03-25T11:58:02;2.83;;;1.60;;
23730;SDS011;12046;44.702;10.622;2024-03-25T12:00:28;2.15;;;1.67;;
23730;SDS011;12046;44.702;10.622;2024-03-25T12:02:54;4.30;;;2.20;;
23730;SDS011;12046;44.702;10.622;2024-03-25T12:05:20;1.70;;;1.60;;
23730;SDS011;12046;44.702;10.622;2024-03-25T12:07:49;2.03;;;1.83;;
23730;SDS011;12046;44.702;10.622;2024-03-25T12:10:17;1.95;;;1.60;;
23730;SDS011;12046;44.702;10.622;2024-03-25T12:13:02;2.15;;;1.95;;
23730;SDS011;12046;44.702;10.622;2024-03-25T12:15:28;6.85;;;2.00;;
23730;SDS011;12046;44.702;10.622;2024-03-25T12:17:54;3.10;;;1.75;;
23730;SDS011;12046;44.702;10.622;2024-03-25T12:20:20;2.90;;;1.65;;
23730;SDS011;12046;44.702;10.622;2024-03-25T12:22:45;2.58;;;1.75;;
23730;SDS011;12046;44.702;10.622;2024-03-25T12:25:12;3.20;;;2.00;;
23730;SDS011;12046;44.702;10.622;2024-03-25T12:27:38;1.73;;;1.60;;
23730;SDS011;12046;44.702;10.622;2024-03-25T12:30:04;3.92;;;1.95;;
23730;SDS011;12046;44.702;10.622;2024-03-25T12:32:38;2.95;;;1.60;;
23730;SDS011;12046;44.702;10.622;2024-03-25T12:37:33;2.53;;;1.73;;
23730;SDS011;12046;44.702;10.622;2024-03-25T12:39:59;3.10;;;1.58;;
23730;SDS011;12046;44.702;10.622;2024-03-25T12:42:25;2.92;;;1.25;;
23730;SDS011;12046;44.702;10.622;2024-03-25T12:44:53;2.70;;;1.63;;
23730;SDS011;12046;44.702;10.622;2024-03-25T12:47:20;1.85;;;1.60;;
23730;SDS011;12046;44.702;10.622;2024-03-25T12:49:46;1.40;;;1.30;;
23730;SDS011;12046;44.702;10.622;2024-03-25T12:52:12;3.35;;;1.42;;
23730;SDS011;12046;44.702;10.622;2024-03-25T12:54:38;2.15;;;1.60;;
23730;SDS011;12046;44.702;10.622;2024-03-25T12:57:05;2.08;;;1.40;;
23730;SDS011;12046;44.702;10.622;2024-03-25T12:59:31;2.00;;;1.67;;
23730;SDS011;12046;44.702;10.622;2024-03-25T13:01:57;2.20;;;1.55;;
23730;SDS011;12046;44.702;10.622;2024-03-25T13:04:23;2.83;;;1.65;;
23730;SDS011;12046;44.702;10.622;2024-03-25T13:06:49;1.63;;;1.50;;
23730;SDS011;12046;44.702;10.622;2024-03-25T13:09:14;3.10;;;1.52;;
23730;SDS011;12046;44.702;10.622;2024-03-25T13:11:40;1.70;;;1.60;;
23730;SDS011;12046;44.702;10.622;2024-03-25T13:14:06;2.70;;;1.70;;
23730;SDS011;12046;44.702;10.622;2024-03-25T13:16:33;2.50;;;1.63;;
23730;SDS011;12046;44.702;10.622;2024-03-25T13:18:58;1.63;;;1.50;;
23730;SDS011;12046;44.702;10.622;2024-03-25T13:21:25;2.80;;;1.58;;
23730;SDS011;12046;44.702;10.622;2024-03-25T13:23:51;3.65;;;1.48;;
23730;SDS011;12046;44.702;10.622;2024-03-25T13:26:18;1.90;;;1.60;;
23730;SDS011;12046;44.702;10.622;2024-03-25T13:28:44;2.55;;;1.73;;
23730;SDS011;12046;44.702;10.622;2024-03-25T13:31:10;2.83;;;2.10;;
23730;SDS011;12046;44.702;10.622;2024-03-25T13:33:36;2.83;;;1.98;;
23730;SDS011;12046;44.702;10.622;2024-03-25T13:36:03;4.30;;;2.17;;
23730;SDS011;12046;44.702;10.622;2024-03-25T13:38:29;3.13;;;1.90;;
23730;SDS011;12046;44.702;10.622;2024-03-25T13:40:55;3.05;;;2.33;;
23730;SDS011;12046;44.702;10.622;2024-03-25T13:43:21;2.97;;;2.10;;
23730;SDS011;12046;44.702;10.622;2024-03-25T13:45:47;3.47;;;2.00;;
23730;SDS011;12046;44.702;10.622;2024-03-25T13:48:14;1.92;;;1.77;;
23730;SDS011;12046;44.702;10.622;2024-03-25T13:50:40;4.97;;;1.92;;
23730;SDS011;12046;44.702;10.622;2024-03-25T13:53:06;1.77;;;1.55;;
23730;SDS011;12046;44.702;10.622;2024-03-25T13:55:33;1.90;;;1.50;;
23730;SDS011;12046;44.702;10.622;2024-03-25T13:57:59;2.30;;;1.58;;
23730;SDS011;12046;44.702;10.622;2024-03-25T14:00:25;1.58;;;1.10;;
23730;SDS011;12046;44.702;10.622;2024-03-25T14:02:54;1.40;;;1.20;;
23730;SDS011;12046;44.702;10.622;2024-03-25T14:05:21;1.45;;;1.27;;
23730;SDS011;12046;44.702;10.622;2024-03-25T14:07:46;2.22;;;1.20;;
23730;SDS011;12046;44.702;10.622;2024-03-25T14:10:12;2.47;;;1.70;;
23730;SDS011;12046;44.702;10.622;2024-03-25T14:12:38;1.92;;;1.45;;
23730;SDS011;12046;44.702;10.622;2024-03-25T14:15:04;1.52;;;1.42;;
23730;SDS011;12046;44.702;10.622;2024-03-25T14:17:30;2.03;;;1.50;;
23730;SDS011;12046;44.702;10.622;2024-03-25T14:19:56;1.73;;;1.50;;
23730;SDS011;12046;44.702;10.622;2024-03-25T14:22:22;2.22;;;1.90;;
23730;SDS011;12046;44.702;10.622;2024-03-25T14:24:48;2.00;;;1.80;;
23730;SDS011;12046;44.702;10.622;2024-03-25T14:27:14;1.90;;;1.70;;
23730;SDS011;12046;44.702;10.622;2024-03-25T14:29:40;2.03;;;1.88;;
23730;SDS011;12046;44.702;10.622;2024-03-25T14:32:07;1.80;;;1.70;;